sensor_id;sensor_type;location;lat;lon;timestamp;P1;durP1;ratioP1;P2;durP2;ratioP2
71046;SDS011;58703;48.978;8.982;2023-12-20T00:01:49;10.45;;;8.05;;
71046;SDS011;58703;48.978;8.982;2023-12-20T00:04:16;13.40;;;8.45;;
71046;SDS011;58703;48.978;8.982;2023-12-20T00:06:42;11.57;;;7.20;;
71046;SDS011;58703;48.978;8.982;2023-12-20T00:09:07;20.63;;;13.20;;
71046;SDS011;58703;48.978;8.982;2023-12-20T00:11:34;19.37;;;12.13;;
71046;SDS011;58703;48.978;8.982;2023-12-20T00:14:00;21.13;;;11.68;;
71046;SDS011;58703;48.978;8.982;2023-12-20T00:16:27;16.42;;;9.25;;
71046;SDS011;58703;48.978;8.982;2023-12-20T00:18:52;11.33;;;7.33;;
71046;SDS011;58703;48.978;8.982;2023-12-20T00:21:18;10.52;;;6.82;;
71046;SDS011;58703;48.978;8.982;2023-12-20T00:23:45;8.43;;;6.00;;
71046;SDS011;58703;48.978;8.982;2023-12-20T00:26:12;9.45;;;6.47;;
71046;SDS011;58703;48.978;8.982;2023-12-20T00:28:38;16.73;;;8.93;;
71046;SDS011;58703;48.978;8.982;2023-12-20T00:31:04;12.60;;;7.65;;
71046;SDS011;58703;48.978;8.982;2023-12-20T00:33:29;14.32;;;7.82;;
71046;SDS011;58703;48.978;8.982;2023-12-20T00:35:57;11.37;;;7.37;;
71046;SDS011;58703;48.978;8.982;2023-12-20T00:38:22;11.35;;;6.85;;
71046;SDS011;58703;48.978;8.982;2023-12-20T00:40:50;11.27;;;7.30;;
71046;SDS011;58703;48.978;8.982;2023-12-20T00:43:17;11.05;;;7.13;;
71046;SDS011;58703;48.978;8.982;2023-12-20T00:45:43;13.10;;;7.05;;
71046;SDS011;58703;48.978;8.982;2023-12-20T00:48:09;11.60;;;7.00;;
71046;SDS011;58703;48.978;8.982;2023-12-20T00:50:36;14.05;;;8.60;;
71046;SDS011;58703;48.978;8.982;2023-12-20T00:53:03;15.77;;;8.33;;
71046;SDS011;58703;48.978;8.982;2023-12-20T00:55:29;16.52;;;9.25;;
71046;SDS011;58703;48.978;8.982;2023-12-20T00:57:56;17.58;;;9.25;;
71046;SDS011;58703;48.978;8.982;2023-12-20T01:00:23;12.57;;;8.25;;
71046;SDS011;58703;48.978;8.982;2023-12-20T01:02:49;9.88;;;6.60;;
71046;SDS011;58703;48.978;8.982;2023-12-20T01:05:17;11.30;;;5.83;;
71046;SDS011;58703;48.978;8.982;2023-12-20T01:07:43;5.15;;;3.80;;
71046;SDS011;58703;48.978;8.982;2023-12-20T01:10:09;5.00;;;3.40;;
71046;SDS011;58703;48.978;8.982;2023-12-20T01:12:35;4.75;;;3.28;;
71046;SDS011;58703;48.978;8.982;2023-12-20T01:15:01;4.85;;;3.42;;
71046;SDS011;58703;48.978;8.982;2023-12-20T01:17:27;5.07;;;3.23;;
71046;SDS011;58703;48.978;8.982;2023-12-20T01:19:52;4.50;;;2.88;;
71046;SDS011;58703;48.978;8.982;2023-12-20T01:22:18;5.17;;;3.27;;
71046;SDS011;58703;48.978;8.982;2023-12-20T01:24:44;4.50;;;2.70;;
71046;SDS011;58703;48.978;8.982;2023-12-20T01:27:09;4.43;;;2.90;;
71046;SDS011;58703;48.978;8.982;2023-12-20T01:29:35;4.33;;;2.07;;
71046;SDS011;58703;48.978;8.982;2023-12-20T01:32:00;4.68;;;2.40;;
71046;SDS011;58703;48.978;8.982;2023-12-20T01:34:26;3.33;;;2.10;;
71046;SDS011;58703;48.978;8.982;2023-12-20T01:36:51;2.80;;;2.07;;
71046;SDS011;58703;48.978;8.982;2023-12-20T01:39:17;2.78;;;1.88;;
71046;SDS011;58703;48.978;8.982;2023-12-20T01:41:43;2.13;;;1.45;;
71046;SDS011;58703;48.978;8.982;2023-12-20T01:44:08;2.08;;;1.48;;
71046;SDS011;58703;48.978;8.982;2023-12-20T01:46:35;2.30;;;1.15;;
71046;SDS011;58703;48.978;8.982;2023-12-20T01:49:00;2.42;;;1.73;;
71046;SDS011;58703;48.978;8.982;2023-12-20T01:51:26;2.53;;;1.30;;
71046;SDS011;58703;48.978;8.982;2023-12-20T01:53:52;1.60;;;1.30;;
71046;SDS011;58703;48.978;8.982;2023-12-20T01:56:20;1.30;;;1.20;;
71046;SDS011;58703;48.978;8.982;2023-12-20T01:58:46;1.13;;;0.90;;
71046;SDS011;58703;48.978;8.982;2023-12-20T02:01:13;2.33;;;1.42;;
71046;SDS011;58703;48.978;8.982;2023-12-20T02:03:40;2.65;;;1.20;;
71046;SDS011;58703;48.978;8.982;2023-12-20T02:06:06;0.80;;;0.80;;
71046;SDS011;58703;48.978;8.982;2023-12-20T02:08:33;1.02;;;0.88;;
71046;SDS011;58703;48.978;8.982;2023-12-20T02:10:59;1.27;;;1.02;;
71046;SDS011;58703;48.978;8.982;2023-12-20T02:13:25;0.90;;;0.47;;
71046;SDS011;58703;48.978;8.982;2023-12-20T02:15:52;3.33;;;0.57;;
71046;SDS011;58703;48.978;8.982;2023-12-20T02:18:17;0.57;;;0.45;;
71046;SDS011;58703;48.978;8.982;2023-12-20T02:20:43;0.85;;;0.82;;
71046;SDS011;58703;48.978;8.982;2023-12-20T02:23:09;1.20;;;0.80;;
71046;SDS011;58703;48.978;8.982;2023-12-20T02:25:34;0.88;;;0.63;;
71046;SDS011;58703;48.978;8.982;2023-12-20T02:28:00;0.70;;;0.40;;
71046;SDS011;58703;48.978;8.982;2023-12-20T02:30:27;0.50;;;0.50;;
71046;SDS011;58703;48.978;8.982;2023-12-20T02:32:52;0.37;;;0.30;;
71046;SDS011;58703;48.978;8.982;2023-12-20T02:35:19;0.63;;;0.63;;
71046;SDS011;58703;48.978;8.982;2023-12-20T02:37:44;0.40;;;0.40;;
71046;SDS011;58703;48.978;8.982;2023-12-20T02:40:10;0.20;;;0.20;;
71046;SDS011;58703;48.978;8.982;2023-12-20T02:42:35;2.00;;;0.40;;
71046;SDS011;58703;48.978;8.982;2023-12-20T02:45:01;0.80;;;0.57;;
71046;SDS011;58703;48.978;8.982;2023-12-20T02:47:27;0.85;;;0.60;;
71046;SDS011;58703;48.978;8.982;2023-12-20T02:49:52;1.83;;;0.70;;
71046;SDS011;58703;48.978;8.982;2023-12-20T02:52:18;0.73;;;0.63;;
71046;SDS011;58703;48.978;8.982;2023-12-20T02:54:43;0.57;;;0.57;;
71046;SDS011;58703;48.978;8.982;2023-12-20T02:57:09;0.67;;;0.30;;
71046;SDS011;58703;48.978;8.982;2023-12-20T02:59:34;0.93;;;0.50;;
71046;SDS011;58703;48.978;8.982;2023-12-20T03:02:00;0.50;;;0.40;;
71046;SDS011;58703;48.978;8.982;2023-12-20T03:04:25;0.60;;;0.40;;
71046;SDS011;58703;48.978;8.982;2023-12-20T03:06:52;0.30;;;0.30;;
71046;SDS011;58703;48.978;8.982;2023-12-20T03:09:17;1.60;;;0.30;;
71046;SDS011;58703;48.978;8.982;2023-12-20T03:11:43;4.33;;;0.20;;
71046;SDS011;58703;48.978;8.982;2023-12-20T03:14:09;0.40;;;0.40;;
71046;SDS011;58703;48.978;8.982;2023-12-20T03:16:34;1.40;;;0.40;;
71046;SDS011;58703;48.978;8.982;2023-12-20T03:18:59;2.23;;;0.60;;
71046;SDS011;58703;48.978;8.982;2023-12-20T03:21:25;0.50;;;0.47;;
71046;SDS011;58703;48.978;8.982;2023-12-20T03:23:50;1.13;;;0.43;;
71046;SDS011;58703;48.978;8.982;2023-12-20T03:26:16;0.90;;;0.50;;
71046;SDS011;58703;48.978;8.982;2023-12-20T03:28:42;0.50;;;0.40;;
71046;SDS011;58703;48.978;8.982;2023-12-20T03:31:07;0.15;;;0.15;;
71046;SDS011;58703;48.978;8.982;2023-12-20T03:33:34;1.83;;;0.32;;
71046;SDS011;58703;48.978;8.982;2023-12-20T03:36:00;2.10;;;0.17;;
71046;SDS011;58703;48.978;8.982;2023-12-20T03:38:25;0.40;;;0.30;;
71046;SDS011;58703;48.978;8.982;2023-12-20T03:40:51;0.80;;;0.53;;
71046;SDS011;58703;48.978;8.982;2023-12-20T03:43:17;0.73;;;0.55;;
71046;SDS011;58703;48.978;8.982;2023-12-20T03:45:42;0.43;;;0.43;;
71046;SDS011;58703;48.978;8.982;2023-12-20T03:48:08;0.52;;;0.40;;
71046;SDS011;58703;48.978;8.982;2023-12-20T03:50:34;0.50;;;0.20;;
71046;SDS011;58703;48.978;8.982;2023-12-20T03:53:00;0.47;;;0.32;;
71046;SDS011;58703;48.978;8.982;2023-12-20T03:55:25;0.60;;;0.30;;
71046;SDS011;58703;48.978;8.982;2023-12-20T03:57:51;0.67;;;0.43;;
71046;SDS011;58703;48.978;8.982;2023-12-20T04:00:16;0.40;;;0.40;;
71046;SDS011;58703;48.978;8.982;2023-12-20T04:02:42;0.30;;;0.30;;
71046;SDS011;58703;48.978;8.982;2023-12-20T04:05:09;0.43;;;0.43;;
71046;SDS011;58703;48.978;8.982;2023-12-20T04:07:35;1.63;;;0.20;;
71046;SDS011;58703;48.978;8.982;2023-12-20T04:10:01;0.65;;;0.38;;
71046;SDS011;58703;48.978;8.982;2023-12-20T04:12:29;0.70;;;0.70;;
71046;SDS011;58703;48.978;8.982;2023-12-20T04:14:54;0.73;;;0.50;;
71046;SDS011;58703;48.978;8.982;2023-12-20T04:17:20;0.50;;;0.47;;
71046;SDS011;58703;48.978;8.982;2023-12-20T04:19:47;0.73;;;0.70;;
71046;SDS011;58703;48.978;8.982;2023-12-20T04:22:19;0.50;;;0.30;;
71046;SDS011;58703;48.978;8.982;2023-12-20T04:24:44;0.47;;;0.47;;
71046;SDS011;58703;48.978;8.982;2023-12-20T04:27:11;0.60;;;0.47;;
71046;SDS011;58703;48.978;8.982;2023-12-20T04:29:37;0.80;;;0.67;;
71046;SDS011;58703;48.978;8.982;2023-12-20T04:32:02;0.75;;;0.40;;
71046;SDS011;58703;48.978;8.982;2023-12-20T04:34:29;0.90;;;0.70;;
71046;SDS011;58703;48.978;8.982;2023-12-20T04:36:54;0.43;;;0.30;;
71046;SDS011;58703;48.978;8.982;2023-12-20T04:39:20;0.73;;;0.50;;
71046;SDS011;58703;48.978;8.982;2023-12-20T04:41:45;0.73;;;0.73;;
71046;SDS011;58703;48.978;8.982;2023-12-20T04:44:13;1.23;;;1.13;;
71046;SDS011;58703;48.978;8.982;2023-12-20T04:46:38;0.43;;;0.43;;
71046;SDS011;58703;48.978;8.982;2023-12-20T04:49:04;0.50;;;0.50;;
71046;SDS011;58703;48.978;8.982;2023-12-20T04:51:30;0.93;;;0.67;;
71046;SDS011;58703;48.978;8.982;2023-12-20T04:53:59;0.93;;;0.90;;
71046;SDS011;58703;48.978;8.982;2023-12-20T04:56:25;1.83;;;1.33;;
71046;SDS011;58703;48.978;8.982;2023-12-20T04:58:50;1.00;;;0.90;;
71046;SDS011;58703;48.978;8.982;2023-12-20T05:01:16;1.23;;;1.13;;
71046;SDS011;58703;48.978;8.982;2023-12-20T05:03:42;1.30;;;1.10;;
71046;SDS011;58703;48.978;8.982;2023-12-20T05:06:07;1.95;;;1.20;;
71046;SDS011;58703;48.978;8.982;2023-12-20T05:08:33;1.63;;;1.50;;
71046;SDS011;58703;48.978;8.982;2023-12-20T05:10:58;1.60;;;1.50;;
71046;SDS011;58703;48.978;8.982;2023-12-20T05:13:24;1.30;;;1.20;;
71046;SDS011;58703;48.978;8.982;2023-12-20T05:15:50;1.93;;;1.73;;
71046;SDS011;58703;48.978;8.982;2023-12-20T05:18:16;2.03;;;1.80;;
71046;SDS011;58703;48.978;8.982;2023-12-20T05:20:41;1.95;;;1.75;;
71046;SDS011;58703;48.978;8.982;2023-12-20T05:23:07;2.42;;;1.60;;
71046;SDS011;58703;48.978;8.982;2023-12-20T05:25:34;1.95;;;1.73;;
71046;SDS011;58703;48.978;8.982;2023-12-20T05:28:01;1.73;;;1.57;;
71046;SDS011;58703;48.978;8.982;2023-12-20T05:30:27;2.45;;;1.80;;
71046;SDS011;58703;48.978;8.982;2023-12-20T05:32:52;1.80;;;1.70;;
71046;SDS011;58703;48.978;8.982;2023-12-20T05:35:19;1.70;;;1.23;;
71046;SDS011;58703;48.978;8.982;2023-12-20T05:37:45;1.17;;;1.08;;
71046;SDS011;58703;48.978;8.982;2023-12-20T05:40:12;2.23;;;1.40;;
71046;SDS011;58703;48.978;8.982;2023-12-20T05:42:38;1.83;;;1.25;;
71046;SDS011;58703;48.978;8.982;2023-12-20T05:45:05;1.77;;;1.27;;
71046;SDS011;58703;48.978;8.982;2023-12-20T05:47:31;2.80;;;1.80;;
71046;SDS011;58703;48.978;8.982;2023-12-20T05:49:57;3.15;;;1.98;;
71046;SDS011;58703;48.978;8.982;2023-12-20T05:52:22;1.97;;;1.37;;
71046;SDS011;58703;48.978;8.982;2023-12-20T05:54:48;2.75;;;1.67;;
71046;SDS011;58703;48.978;8.982;2023-12-20T05:57:13;3.70;;;2.20;;
71046;SDS011;58703;48.978;8.982;2023-12-20T05:59:39;2.47;;;1.92;;
71046;SDS011;58703;48.978;8.982;2023-12-20T06:02:05;2.22;;;1.77;;
71046;SDS011;58703;48.978;8.982;2023-12-20T06:04:30;2.40;;;1.77;;
71046;SDS011;58703;48.978;8.982;2023-12-20T06:06:56;3.60;;;2.70;;
71046;SDS011;58703;48.978;8.982;2023-12-20T06:09:22;3.80;;;2.22;;
71046;SDS011;58703;48.978;8.982;2023-12-20T06:11:48;3.83;;;2.73;;
71046;SDS011;58703;48.978;8.982;2023-12-20T06:14:14;4.00;;;3.15;;
71046;SDS011;58703;48.978;8.982;2023-12-20T06:16:41;5.77;;;3.90;;
71046;SDS011;58703;48.978;8.982;2023-12-20T06:19:07;4.10;;;3.28;;
71046;SDS011;58703;48.978;8.982;2023-12-20T06:21:34;3.78;;;3.25;;
71046;SDS011;58703;48.978;8.982;2023-12-20T06:23:59;4.60;;;3.10;;
71046;SDS011;58703;48.978;8.982;2023-12-20T06:26:26;7.35;;;3.20;;
71046;SDS011;58703;48.978;8.982;2023-12-20T06:28:51;4.45;;;3.15;;
71046;SDS011;58703;48.978;8.982;2023-12-20T06:31:17;4.70;;;3.80;;
71046;SDS011;58703;48.978;8.982;2023-12-20T06:33:44;3.97;;;3.27;;
71046;SDS011;58703;48.978;8.982;2023-12-20T06:36:14;4.78;;;4.28;;
71046;SDS011;58703;48.978;8.982;2023-12-20T06:38:40;4.70;;;3.50;;
71046;SDS011;58703;48.978;8.982;2023-12-20T06:41:08;4.90;;;4.40;;
71046;SDS011;58703;48.978;8.982;2023-12-20T06:43:33;4.00;;;3.60;;
71046;SDS011;58703;48.978;8.982;2023-12-20T06:46:00;5.47;;;4.10;;
71046;SDS011;58703;48.978;8.982;2023-12-20T06:48:26;4.30;;;3.92;;
71046;SDS011;58703;48.978;8.982;2023-12-20T06:50:53;3.78;;;3.08;;
71046;SDS011;58703;48.978;8.982;2023-12-20T06:53:18;3.70;;;3.27;;
71046;SDS011;58703;48.978;8.982;2023-12-20T06:55:45;3.57;;;3.27;;
71046;SDS011;58703;48.978;8.982;2023-12-20T06:58:10;4.00;;;3.60;;
71046;SDS011;58703;48.978;8.982;2023-12-20T07:00:38;4.00;;;3.60;;
71046;SDS011;58703;48.978;8.982;2023-12-20T07:03:04;4.90;;;4.40;;
71046;SDS011;58703;48.978;8.982;2023-12-20T07:05:30;4.28;;;3.47;;
71046;SDS011;58703;48.978;8.982;2023-12-20T07:07:56;4.80;;;4.35;;
71046;SDS011;58703;48.978;8.982;2023-12-20T07:10:23;4.73;;;4.07;;
71046;SDS011;58703;48.978;8.982;2023-12-20T07:12:50;5.63;;;4.82;;
71046;SDS011;58703;48.978;8.982;2023-12-20T07:15:16;5.70;;;5.20;;
71046;SDS011;58703;48.978;8.982;2023-12-20T07:17:45;5.60;;;4.73;;
71046;SDS011;58703;48.978;8.982;2023-12-20T07:20:10;5.88;;;3.88;;
71046;SDS011;58703;48.978;8.982;2023-12-20T07:22:38;3.92;;;3.53;;
71046;SDS011;58703;48.978;8.982;2023-12-20T07:25:05;4.10;;;3.70;;
71046;SDS011;58703;48.978;8.982;2023-12-20T07:27:32;3.40;;;2.92;;
71046;SDS011;58703;48.978;8.982;2023-12-20T07:29:58;3.80;;;3.40;;
71046;SDS011;58703;48.978;8.982;2023-12-20T07:32:25;3.85;;;3.50;;
71046;SDS011;58703;48.978;8.982;2023-12-20T07:34:52;3.33;;;2.95;;
71046;SDS011;58703;48.978;8.982;2023-12-20T07:37:20;3.40;;;3.10;;
71046;SDS011;58703;48.978;8.982;2023-12-20T07:39:47;3.55;;;3.25;;
71046;SDS011;58703;48.978;8.982;2023-12-20T07:42:13;3.03;;;2.60;;
71046;SDS011;58703;48.978;8.982;2023-12-20T07:44:40;3.50;;;3.15;;
71046;SDS011;58703;48.978;8.982;2023-12-20T07:47:06;8.38;;;4.70;;
71046;SDS011;58703;48.978;8.982;2023-12-20T07:49:33;4.78;;;3.88;;
71046;SDS011;58703;48.978;8.982;2023-12-20T07:52:00;4.07;;;3.35;;
71046;SDS011;58703;48.978;8.982;2023-12-20T07:54:27;4.60;;;4.20;;
71046;SDS011;58703;48.978;8.982;2023-12-20T07:56:53;3.87;;;2.93;;
71046;SDS011;58703;48.978;8.982;2023-12-20T07:59:20;4.00;;;3.50;;
71046;SDS011;58703;48.978;8.982;2023-12-20T08:01:46;5.63;;;4.28;;
71046;SDS011;58703;48.978;8.982;2023-12-20T08:04:11;6.80;;;4.37;;
71046;SDS011;58703;48.978;8.982;2023-12-20T08:06:39;3.97;;;3.13;;
71046;SDS011;58703;48.978;8.982;2023-12-20T08:09:05;4.85;;;4.22;;
71046;SDS011;58703;48.978;8.982;2023-12-20T08:11:32;4.80;;;3.70;;
71046;SDS011;58703;48.978;8.982;2023-12-20T08:13:59;5.78;;;4.20;;
71046;SDS011;58703;48.978;8.982;2023-12-20T08:16:27;4.33;;;2.80;;
71046;SDS011;58703;48.978;8.982;2023-12-20T08:18:53;4.32;;;2.10;;
71046;SDS011;58703;48.978;8.982;2023-12-20T08:21:20;2.55;;;2.15;;
71046;SDS011;58703;48.978;8.982;2023-12-20T08:23:48;3.13;;;1.77;;
71046;SDS011;58703;48.978;8.982;2023-12-20T08:26:18;2.28;;;1.92;;
71046;SDS011;58703;48.978;8.982;2023-12-20T08:28:51;4.17;;;2.33;;
71046;SDS011;58703;48.978;8.982;2023-12-20T08:31:17;2.13;;;1.90;;
71046;SDS011;58703;48.978;8.982;2023-12-20T08:33:45;6.20;;;2.20;;
71046;SDS011;58703;48.978;8.982;2023-12-20T08:36:14;3.25;;;1.55;;
71046;SDS011;58703;48.978;8.982;2023-12-20T08:38:44;5.18;;;2.28;;
71046;SDS011;58703;48.978;8.982;2023-12-20T08:41:11;3.83;;;2.10;;
71046;SDS011;58703;48.978;8.982;2023-12-20T08:43:36;2.95;;;1.90;;
71046;SDS011;58703;48.978;8.982;2023-12-20T08:46:07;2.88;;;2.33;;
71046;SDS011;58703;48.978;8.982;2023-12-20T08:48:35;4.10;;;2.63;;
71046;SDS011;58703;48.978;8.982;2023-12-20T08:51:02;3.97;;;2.90;;
71046;SDS011;58703;48.978;8.982;2023-12-20T08:53:28;4.18;;;2.90;;
71046;SDS011;58703;48.978;8.982;2023-12-20T08:55:55;3.63;;;3.33;;
71046;SDS011;58703;48.978;8.982;2023-12-20T08:58:26;4.85;;;3.50;;
71046;SDS011;58703;48.978;8.982;2023-12-20T09:00:53;4.68;;;2.92;;
71046;SDS011;58703;48.978;8.982;2023-12-20T09:03:19;4.03;;;3.10;;
71046;SDS011;58703;48.978;8.982;2023-12-20T09:05:45;3.53;;;3.13;;
71046;SDS011;58703;48.978;8.982;2023-12-20T09:08:10;5.17;;;3.70;;
71046;SDS011;58703;48.978;8.982;2023-12-20T09:10:37;4.57;;;3.30;;
71046;SDS011;58703;48.978;8.982;2023-12-20T09:13:03;4.70;;;3.05;;
71046;SDS011;58703;48.978;8.982;2023-12-20T09:15:29;5.65;;;3.17;;
71046;SDS011;58703;48.978;8.982;2023-12-20T09:17:57;5.97;;;2.95;;
71046;SDS011;58703;48.978;8.982;2023-12-20T09:20:25;2.47;;;2.28;;
71046;SDS011;58703;48.978;8.982;2023-12-20T09:22:52;5.22;;;2.22;;
71046;SDS011;58703;48.978;8.982;2023-12-20T09:25:17;4.00;;;2.05;;
71046;SDS011;58703;48.978;8.982;2023-12-20T09:27:44;2.63;;;1.98;;
71046;SDS011;58703;48.978;8.982;2023-12-20T09:30:10;3.55;;;1.70;;
71046;SDS011;58703;48.978;8.982;2023-12-20T09:32:38;2.33;;;1.20;;
71046;SDS011;58703;48.978;8.982;2023-12-20T09:35:05;2.25;;;1.40;;
71046;SDS011;58703;48.978;8.982;2023-12-20T09:37:32;5.30;;;1.70;;
71046;SDS011;58703;48.978;8.982;2023-12-20T09:39:59;4.00;;;1.67;;
71046;SDS011;58703;48.978;8.982;2023-12-20T09:42:32;4.60;;;1.23;;
71046;SDS011;58703;48.978;8.982;2023-12-20T09:45:11;1.93;;;1.00;;
71046;SDS011;58703;48.978;8.982;2023-12-20T09:47:41;1.77;;;1.08;;
71046;SDS011;58703;48.978;8.982;2023-12-20T09:50:08;4.72;;;1.40;;
71046;SDS011;58703;48.978;8.982;2023-12-20T09:52:34;4.22;;;1.10;;
71046;SDS011;58703;48.978;8.982;2023-12-20T09:55:03;3.53;;;1.15;;
71046;SDS011;58703;48.978;8.982;2023-12-20T09:57:31;4.15;;;1.20;;
71046;SDS011;58703;48.978;8.982;2023-12-20T09:59:59;4.38;;;0.75;;
71046;SDS011;58703;48.978;8.982;2023-12-20T10:02:26;4.95;;;1.02;;
71046;SDS011;58703;48.978;8.982;2023-12-20T10:04:54;4.55;;;0.80;;
71046;SDS011;58703;48.978;8.982;2023-12-20T10:07:19;3.17;;;1.10;;
71046;SDS011;58703;48.978;8.982;2023-12-20T10:09:48;3.63;;;1.08;;
71046;SDS011;58703;48.978;8.982;2023-12-20T10:12:16;4.50;;;0.95;;
71046;SDS011;58703;48.978;8.982;2023-12-20T10:14:43;5.70;;;2.15;;
71046;SDS011;58703;48.978;8.982;2023-12-20T10:17:09;6.35;;;1.70;;
71046;SDS011;58703;48.978;8.982;2023-12-20T10:19:37;2.60;;;0.90;;
71046;SDS011;58703;48.978;8.982;2023-12-20T10:22:04;4.73;;;1.10;;
71046;SDS011;58703;48.978;8.982;2023-12-20T10:24:30;4.75;;;1.13;;
71046;SDS011;58703;48.978;8.982;2023-12-20T10:27:06;4.28;;;1.25;;
71046;SDS011;58703;48.978;8.982;2023-12-20T10:29:35;2.30;;;0.90;;
71046;SDS011;58703;48.978;8.982;2023-12-20T10:34:54;5.13;;;0.80;;
71046;SDS011;58703;48.978;8.982;2023-12-20T10:37:21;4.03;;;1.10;;
71046;SDS011;58703;48.978;8.982;2023-12-20T10:39:49;3.85;;;1.15;;
71046;SDS011;58703;48.978;8.982;2023-12-20T10:42:20;4.20;;;1.50;;
71046;SDS011;58703;48.978;8.982;2023-12-20T10:44:51;5.13;;;0.88;;
71046;SDS011;58703;48.978;8.982;2023-12-20T10:47:20;4.80;;;0.70;;
71046;SDS011;58703;48.978;8.982;2023-12-20T10:49:46;2.15;;;0.63;;
71046;SDS011;58703;48.978;8.982;2023-12-20T10:52:14;4.40;;;0.85;;
71046;SDS011;58703;48.978;8.982;2023-12-20T10:54:44;4.72;;;1.05;;
71046;SDS011;58703;48.978;8.982;2023-12-20T10:57:10;5.38;;;0.70;;
71046;SDS011;58703;48.978;8.982;2023-12-20T10:59:37;5.70;;;2.83;;
71046;SDS011;58703;48.978;8.982;2023-12-20T11:02:05;28.23;;;16.88;;
71046;SDS011;58703;48.978;8.982;2023-12-20T11:07:31;12.50;;;10.57;;
71046;SDS011;58703;48.978;8.982;2023-12-20T11:10:03;9.25;;;6.05;;
71046;SDS011;58703;48.978;8.982;2023-12-20T11:15:42;9.50;;;8.15;;
71046;SDS011;58703;48.978;8.982;2023-12-20T11:18:10;5.15;;;3.92;;
71046;SDS011;58703;48.978;8.982;2023-12-20T11:20:37;13.23;;;9.02;;
71046;SDS011;58703;48.978;8.982;2023-12-20T11:23:04;6.60;;;1.73;;
71046;SDS011;58703;48.978;8.982;2023-12-20T11:25:33;10.43;;;9.35;;
71046;SDS011;58703;48.978;8.982;2023-12-20T11:28:22;3.20;;;1.30;;
71046;SDS011;58703;48.978;8.982;2023-12-20T11:30:56;4.53;;;1.20;;
71046;SDS011;58703;48.978;8.982;2023-12-20T11:33:30;8.95;;;1.10;;
71046;SDS011;58703;48.978;8.982;2023-12-20T11:36:00;5.47;;;1.55;;
71046;SDS011;58703;48.978;8.982;2023-12-20T11:38:27;5.97;;;2.10;;
71046;SDS011;58703;48.978;8.982;2023-12-20T11:40:54;2.28;;;1.20;;
71046;SDS011;58703;48.978;8.982;2023-12-20T11:43:38;6.60;;;1.13;;
71046;SDS011;58703;48.978;8.982;2023-12-20T11:46:08;7.25;;;1.25;;
71046;SDS011;58703;48.978;8.982;2023-12-20T11:48:39;5.78;;;1.67;;
71046;SDS011;58703;48.978;8.982;2023-12-20T11:51:14;6.47;;;1.17;;
71046;SDS011;58703;48.978;8.982;2023-12-20T11:53:42;2.65;;;1.30;;
71046;SDS011;58703;48.978;8.982;2023-12-20T11:56:09;5.13;;;1.27;;
71046;SDS011;58703;48.978;8.982;2023-12-20T11:58:36;5.15;;;1.48;;
71046;SDS011;58703;48.978;8.982;2023-12-20T12:01:03;4.30;;;1.25;;
71046;SDS011;58703;48.978;8.982;2023-12-20T12:03:31;5.43;;;2.95;;
71046;SDS011;58703;48.978;8.982;2023-12-20T12:05:57;4.15;;;1.63;;
71046;SDS011;58703;48.978;8.982;2023-12-20T12:08:25;6.68;;;1.20;;
71046;SDS011;58703;48.978;8.982;2023-12-20T12:10:51;8.13;;;1.33;;
71046;SDS011;58703;48.978;8.982;2023-12-20T12:13:18;5.53;;;0.90;;
71046;SDS011;58703;48.978;8.982;2023-12-20T12:15:44;6.90;;;1.20;;
71046;SDS011;58703;48.978;8.982;2023-12-20T12:18:10;6.13;;;1.38;;
71046;SDS011;58703;48.978;8.982;2023-12-20T12:20:38;7.32;;;1.67;;
71046;SDS011;58703;48.978;8.982;2023-12-20T12:23:05;6.53;;;1.87;;
71046;SDS011;58703;48.978;8.982;2023-12-20T12:25:36;7.43;;;1.00;;
71046;SDS011;58703;48.978;8.982;2023-12-20T12:28:06;4.60;;;1.45;;
71046;SDS011;58703;48.978;8.982;2023-12-20T12:30:33;4.57;;;1.40;;
71046;SDS011;58703;48.978;8.982;2023-12-20T12:33:00;5.18;;;1.10;;
71046;SDS011;58703;48.978;8.982;2023-12-20T12:35:27;3.33;;;1.17;;
71046;SDS011;58703;48.978;8.982;2023-12-20T12:37:54;4.20;;;1.20;;
71046;SDS011;58703;48.978;8.982;2023-12-20T12:40:23;3.25;;;1.27;;
71046;SDS011;58703;48.978;8.982;2023-12-20T12:42:49;6.23;;;1.10;;
71046;SDS011;58703;48.978;8.982;2023-12-20T12:45:16;4.35;;;1.15;;
71046;SDS011;58703;48.978;8.982;2023-12-20T12:47:42;5.90;;;1.35;;
71046;SDS011;58703;48.978;8.982;2023-12-20T12:50:09;6.60;;;1.42;;
71046;SDS011;58703;48.978;8.982;2023-12-20T12:52:36;4.25;;;1.60;;
71046;SDS011;58703;48.978;8.982;2023-12-20T12:55:04;2.95;;;1.65;;
71046;SDS011;58703;48.978;8.982;2023-12-20T12:57:31;8.07;;;1.10;;
71046;SDS011;58703;48.978;8.982;2023-12-20T12:59:57;4.57;;;1.55;;
71046;SDS011;58703;48.978;8.982;2023-12-20T13:02:25;4.47;;;1.13;;
71046;SDS011;58703;48.978;8.982;2023-12-20T13:04:52;5.43;;;1.98;;
71046;SDS011;58703;48.978;8.982;2023-12-20T13:07:18;6.00;;;1.77;;
71046;SDS011;58703;48.978;8.982;2023-12-20T13:09:45;6.90;;;2.88;;
71046;SDS011;58703;48.978;8.982;2023-12-20T13:12:10;3.42;;;1.40;;
71046;SDS011;58703;48.978;8.982;2023-12-20T13:14:37;4.45;;;1.42;;
71046;SDS011;58703;48.978;8.982;2023-12-20T13:17:04;7.13;;;2.97;;
71046;SDS011;58703;48.978;8.982;2023-12-20T13:19:31;5.85;;;2.15;;
71046;SDS011;58703;48.978;8.982;2023-12-20T13:21:58;6.60;;;2.60;;
71046;SDS011;58703;48.978;8.982;2023-12-20T13:24:25;3.72;;;1.25;;
71046;SDS011;58703;48.978;8.982;2023-12-20T13:27:13;5.50;;;2.08;;
71046;SDS011;58703;48.978;8.982;2023-12-20T13:29:39;7.57;;;1.30;;
71046;SDS011;58703;48.978;8.982;2023-12-20T13:32:06;4.22;;;1.17;;
71046;SDS011;58703;48.978;8.982;2023-12-20T13:34:33;4.73;;;0.80;;
71046;SDS011;58703;48.978;8.982;2023-12-20T13:37:00;4.03;;;1.08;;
71046;SDS011;58703;48.978;8.982;2023-12-20T13:39:27;4.68;;;1.73;;
71046;SDS011;58703;48.978;8.982;2023-12-20T13:41:54;5.25;;;1.00;;
71046;SDS011;58703;48.978;8.982;2023-12-20T13:44:21;5.35;;;3.17;;
71046;SDS011;58703;48.978;8.982;2023-12-20T13:46:49;2.77;;;1.50;;
71046;SDS011;58703;48.978;8.982;2023-12-20T13:49:16;4.35;;;1.23;;
71046;SDS011;58703;48.978;8.982;2023-12-20T13:51:43;6.80;;;1.83;;
71046;SDS011;58703;48.978;8.982;2023-12-20T13:54:09;6.80;;;2.40;;
71046;SDS011;58703;48.978;8.982;2023-12-20T13:56:37;6.18;;;1.40;;
71046;SDS011;58703;48.978;8.982;2023-12-20T13:59:02;5.50;;;1.00;;
71046;SDS011;58703;48.978;8.982;2023-12-20T14:01:29;6.20;;;1.55;;
71046;SDS011;58703;48.978;8.982;2023-12-20T14:03:55;4.32;;;1.30;;
71046;SDS011;58703;48.978;8.982;2023-12-20T14:06:21;23.80;;;21.53;;
71046;SDS011;58703;48.978;8.982;2023-12-20T14:08:46;9.75;;;5.25;;
71046;SDS011;58703;48.978;8.982;2023-12-20T14:11:14;5.22;;;1.73;;
71046;SDS011;58703;48.978;8.982;2023-12-20T14:13:41;4.20;;;1.67;;
71046;SDS011;58703;48.978;8.982;2023-12-20T14:16:06;9.68;;;1.75;;
71046;SDS011;58703;48.978;8.982;2023-12-20T14:18:33;6.80;;;1.92;;
71046;SDS011;58703;48.978;8.982;2023-12-20T14:21:00;6.07;;;1.70;;
71046;SDS011;58703;48.978;8.982;2023-12-20T14:23:25;9.55;;;2.65;;
71046;SDS011;58703;48.978;8.982;2023-12-20T14:25:51;11.53;;;2.03;;
71046;SDS011;58703;48.978;8.982;2023-12-20T14:28:18;11.35;;;1.98;;
71046;SDS011;58703;48.978;8.982;2023-12-20T14:30:44;6.10;;;1.53;;
71046;SDS011;58703;48.978;8.982;2023-12-20T14:33:10;11.43;;;2.65;;
71046;SDS011;58703;48.978;8.982;2023-12-20T14:35:36;11.30;;;7.20;;
71046;SDS011;58703;48.978;8.982;2023-12-20T14:38:03;9.15;;;6.35;;
71046;SDS011;58703;48.978;8.982;2023-12-20T14:40:30;12.13;;;5.78;;
71046;SDS011;58703;48.978;8.982;2023-12-20T14:42:57;12.00;;;6.80;;
71046;SDS011;58703;48.978;8.982;2023-12-20T14:45:24;6.70;;;1.60;;
71046;SDS011;58703;48.978;8.982;2023-12-20T14:47:52;6.45;;;3.22;;
71046;SDS011;58703;48.978;8.982;2023-12-20T14:50:19;4.18;;;1.33;;
71046;SDS011;58703;48.978;8.982;2023-12-20T14:52:46;6.57;;;1.90;;